sensor_id;sensor_type;location;lat;lon;timestamp;temperature;humidity
67196;DHT22;54122;53.538;49.366;2023-10-09T00:00:58;5.30;68.30
67196;DHT22;54122;53.538;49.366;2023-10-09T00:03:31;5.30;68.40
67196;DHT22;54122;53.538;49.366;2023-10-09T00:05:57;5.20;68.50
67196;DHT22;54122;53.538;49.366;2023-10-09T00:08:24;5.20;68.30
67196;DHT22;54122;53.538;49.366;2023-10-09T00:11:00;5.20;68.30
67196;DHT22;54122;53.538;49.366;2023-10-09T00:13:44;5.10;68.40
67196;DHT22;54122;53.538;49.366;2023-10-09T00:16:22;5.10;68.50
67196;DHT22;54122;53.538;49.366;2023-10-09T00:19:05;5.00;68.70
67196;DHT22;54122;53.538;49.366;2023-10-09T00:21:47;5.00;68.90
67196;DHT22;54122;53.538;49.366;2023-10-09T00:24:14;5.00;69.90
67196;DHT22;54122;53.538;49.366;2023-10-09T00:26:51;4.90;69.00
67196;DHT22;54122;53.538;49.366;2023-10-09T00:29:18;4.90;69.20
67196;DHT22;54122;53.538;49.366;2023-10-09T00:31:52;4.90;69.40
67196;DHT22;54122;53.538;49.366;2023-10-09T00:34:29;4.80;69.70
67196;DHT22;54122;53.538;49.366;2023-10-09T00:37:09;4.70;70.00
67196;DHT22;54122;53.538;49.366;2023-10-09T00:39:45;4.70;70.10
67196;DHT22;54122;53.538;49.366;2023-10-09T00:42:15;4.80;70.30
67196;DHT22;54122;53.538;49.366;2023-10-09T00:44:51;4.70;70.20
67196;DHT22;54122;53.538;49.366;2023-10-09T00:47:18;4.70;70.10
67196;DHT22;54122;53.538;49.366;2023-10-09T00:52:36;4.80;70.10
67196;DHT22;54122;53.538;49.366;2023-10-09T00:55:12;4.70;70.50
67196;DHT22;54122;53.538;49.366;2023-10-09T00:57:51;4.60;70.50
67196;DHT22;54122;53.538;49.366;2023-10-09T01:00:25;4.60;70.80
67196;DHT22;54122;53.538;49.366;2023-10-09T01:03:10;4.50;71.30
67196;DHT22;54122;53.538;49.366;2023-10-09T01:05:47;4.50;71.60
67196;DHT22;54122;53.538;49.366;2023-10-09T01:08:32;4.40;71.80
67196;DHT22;54122;53.538;49.366;2023-10-09T01:11:13;4.40;72.40
67196;DHT22;54122;53.538;49.366;2023-10-09T01:13:56;4.40;72.60
67196;DHT22;54122;53.538;49.366;2023-10-09T01:16:38;4.40;72.90
67196;DHT22;54122;53.538;49.366;2023-10-09T01:19:07;4.40;74.00
67196;DHT22;54122;53.538;49.366;2023-10-09T01:21:39;4.40;73.10
67196;DHT22;54122;53.538;49.366;2023-10-09T01:24:06;4.40;73.10
67196;DHT22;54122;53.538;49.366;2023-10-09T01:26:37;4.30;73.30
67196;DHT22;54122;53.538;49.366;2023-10-09T01:29:20;4.30;73.50
67196;DHT22;54122;53.538;49.366;2023-10-09T01:31:50;4.20;73.80
67196;DHT22;54122;53.538;49.366;2023-10-09T01:34:23;4.20;74.30
67196;DHT22;54122;53.538;49.366;2023-10-09T01:37:08;4.20;74.20
67196;DHT22;54122;53.538;49.366;2023-10-09T01:39:41;4.20;74.50
67196;DHT22;54122;53.538;49.366;2023-10-09T01:42:08;4.10;74.70
67196;DHT22;54122;53.538;49.366;2023-10-09T01:44:36;4.10;74.70
67196;DHT22;54122;53.538;49.366;2023-10-09T01:47:09;4.20;74.70
67196;DHT22;54122;53.538;49.366;2023-10-09T01:49:40;4.20;75.70
67196;DHT22;54122;53.538;49.366;2023-10-09T01:52:10;4.10;74.80
67196;DHT22;54122;53.538;49.366;2023-10-09T01:54:42;4.10;74.90
67196;DHT22;54122;53.538;49.366;2023-10-09T01:57:13;4.00;75.20
67196;DHT22;54122;53.538;49.366;2023-10-09T01:59:40;4.10;75.30
67196;DHT22;54122;53.538;49.366;2023-10-09T02:02:25;4.10;75.20
67196;DHT22;54122;53.538;49.366;2023-10-09T02:04:57;4.10;75.20
67196;DHT22;54122;53.538;49.366;2023-10-09T02:07:53;4.10;75.20
67196;DHT22;54122;53.538;49.366;2023-10-09T02:10:20;4.10;75.50
67196;DHT22;54122;53.538;49.366;2023-10-09T02:12:59;4.10;75.60
67196;DHT22;54122;53.538;49.366;2023-10-09T02:15:30;4.20;75.50
67196;DHT22;54122;53.538;49.366;2023-10-09T02:18:15;4.40;75.20
67196;DHT22;54122;53.538;49.366;2023-10-09T02:23:26;4.40;74.70
67196;DHT22;54122;53.538;49.366;2023-10-09T02:26:05;4.30;75.00
67196;DHT22;54122;53.538;49.366;2023-10-09T02:28:32;4.30;75.20
67196;DHT22;54122;53.538;49.366;2023-10-09T02:30:59;4.30;75.50
67196;DHT22;54122;53.538;49.366;2023-10-09T02:33:45;4.30;75.60
67196;DHT22;54122;53.538;49.366;2023-10-09T02:36:11;4.30;75.70
67196;DHT22;54122;53.538;49.366;2023-10-09T02:38:37;4.10;76.10
67196;DHT22;54122;53.538;49.366;2023-10-09T02:41:06;4.10;76.70
67196;DHT22;54122;53.538;49.366;2023-10-09T02:43:33;4.00;76.90
67196;DHT22;54122;53.538;49.366;2023-10-09T02:46:07;3.90;77.20
67196;DHT22;54122;53.538;49.366;2023-10-09T02:48:40;3.90;77.70
67196;DHT22;54122;53.538;49.366;2023-10-09T02:51:13;3.80;77.90
67196;DHT22;54122;53.538;49.366;2023-10-09T02:53:59;3.70;78.30
67196;DHT22;54122;53.538;49.366;2023-10-09T02:56:25;3.70;78.60
67196;DHT22;54122;53.538;49.366;2023-10-09T02:59:09;3.70;78.60
67196;DHT22;54122;53.538;49.366;2023-10-09T03:01:37;3.70;78.90
67196;DHT22;54122;53.538;49.366;2023-10-09T03:04:04;3.70;80.20
67196;DHT22;54122;53.538;49.366;2023-10-09T03:06:32;3.80;79.20
67196;DHT22;54122;53.538;49.366;2023-10-09T03:09:01;3.70;79.10
67196;DHT22;54122;53.538;49.366;2023-10-09T03:11:46;3.70;79.10
67196;DHT22;54122;53.538;49.366;2023-10-09T03:14:14;3.70;79.30
67196;DHT22;54122;53.538;49.366;2023-10-09T03:16:43;3.70;79.60
67196;DHT22;54122;53.538;49.366;2023-10-09T03:19:09;3.80;79.40
67196;DHT22;54122;53.538;49.366;2023-10-09T03:21:39;3.90;79.30
67196;DHT22;54122;53.538;49.366;2023-10-09T03:24:07;3.90;79.20
67196;DHT22;54122;53.538;49.366;2023-10-09T03:26:34;4.00;79.00
67196;DHT22;54122;53.538;49.366;2023-10-09T03:29:01;4.10;78.90
67196;DHT22;54122;53.538;49.366;2023-10-09T03:31:29;4.20;78.70
67196;DHT22;54122;53.538;49.366;2023-10-09T03:33:57;4.20;78.30
67196;DHT22;54122;53.538;49.366;2023-10-09T03:36:23;4.30;78.30
67196;DHT22;54122;53.538;49.366;2023-10-09T03:38:53;4.40;78.20
67196;DHT22;54122;53.538;49.366;2023-10-09T03:41:24;4.50;78.10
67196;DHT22;54122;53.538;49.366;2023-10-09T03:43:55;4.80;77.60
67196;DHT22;54122;53.538;49.366;2023-10-09T03:46:21;4.90;77.10
67196;DHT22;54122;53.538;49.366;2023-10-09T03:48:52;5.10;76.40
67196;DHT22;54122;53.538;49.366;2023-10-09T03:51:19;5.20;76.10
67196;DHT22;54122;53.538;49.366;2023-10-09T03:53:49;5.30;75.10
67196;DHT22;54122;53.538;49.366;2023-10-09T03:56:17;5.40;74.70
67196;DHT22;54122;53.538;49.366;2023-10-09T03:58:45;5.50;74.40
67196;DHT22;54122;53.538;49.366;2023-10-09T04:01:13;5.50;74.10
67196;DHT22;54122;53.538;49.366;2023-10-09T04:03:50;5.60;74.10
67196;DHT22;54122;53.538;49.366;2023-10-09T04:06:30;5.70;73.80
67196;DHT22;54122;53.538;49.366;2023-10-09T04:09:02;5.70;73.10
67196;DHT22;54122;53.538;49.366;2023-10-09T04:11:48;5.60;72.70
67196;DHT22;54122;53.538;49.366;2023-10-09T04:14:16;5.50;73.30
67196;DHT22;54122;53.538;49.366;2023-10-09T04:16:52;5.50;73.60
67196;DHT22;54122;53.538;49.366;2023-10-09T04:19:22;5.50;73.90
67196;DHT22;54122;53.538;49.366;2023-10-09T04:21:48;5.40;74.00
67196;DHT22;54122;53.538;49.366;2023-10-09T04:24:15;5.60;74.70
67196;DHT22;54122;53.538;49.366;2023-10-09T04:26:43;6.40;73.70
67196;DHT22;54122;53.538;49.366;2023-10-09T04:29:14;7.20;71.40
67196;DHT22;54122;53.538;49.366;2023-10-09T04:31:53;7.60;67.80
67196;DHT22;54122;53.538;49.366;2023-10-09T04:34:22;7.40;67.00
67196;DHT22;54122;53.538;49.366;2023-10-09T04:37:09;7.20;68.90
67196;DHT22;54122;53.538;49.366;2023-10-09T04:39:41;7.80;68.60
67196;DHT22;54122;53.538;49.366;2023-10-09T04:42:14;8.30;65.70
67196;DHT22;54122;53.538;49.366;2023-10-09T04:44:50;8.30;65.20
67196;DHT22;54122;53.538;49.366;2023-10-09T04:47:35;8.30;64.10
67196;DHT22;54122;53.538;49.366;2023-10-09T04:50:06;8.20;65.50
67196;DHT22;54122;53.538;49.366;2023-10-09T04:52:38;8.70;63.80
67196;DHT22;54122;53.538;49.366;2023-10-09T04:55:05;9.30;61.70
67196;DHT22;54122;53.538;49.366;2023-10-09T04:57:41;9.90;58.90
67196;DHT22;54122;53.538;49.366;2023-10-09T05:00:18;10.10;57.70
67196;DHT22;54122;53.538;49.366;2023-10-09T05:02:54;10.40;56.00
67196;DHT22;54122;53.538;49.366;2023-10-09T05:05:29;9.90;55.90
67196;DHT22;54122;53.538;49.366;2023-10-09T05:08:17;9.30;57.70
67196;DHT22;54122;53.538;49.366;2023-10-09T05:10:52;9.10;58.90
67196;DHT22;54122;53.538;49.366;2023-10-09T05:16:09;9.50;60.10
67196;DHT22;54122;53.538;49.366;2023-10-09T05:18:49;10.00;57.30
67196;DHT22;54122;53.538;49.366;2023-10-09T05:21:39;10.10;55.20
67196;DHT22;54122;53.538;49.366;2023-10-09T05:24:08;10.40;55.20
67196;DHT22;54122;53.538;49.366;2023-10-09T05:26:42;10.60;54.70
67196;DHT22;54122;53.538;49.366;2023-10-09T05:29:22;10.60;53.40
67196;DHT22;54122;53.538;49.366;2023-10-09T05:31:55;11.00;53.40
67196;DHT22;54122;53.538;49.366;2023-10-09T05:34:42;11.40;52.70
67196;DHT22;54122;53.538;49.366;2023-10-09T05:37:32;12.00;51.10
67196;DHT22;54122;53.538;49.366;2023-10-09T05:40:09;12.50;49.40
67196;DHT22;54122;53.538;49.366;2023-10-09T05:42:45;12.40;48.10
67196;DHT22;54122;53.538;49.366;2023-10-09T05:45:13;12.30;48.10
67196;DHT22;54122;53.538;49.366;2023-10-09T05:47:58;12.20;48.20
67196;DHT22;54122;53.538;49.366;2023-10-09T05:50:50;12.00;48.00
67196;DHT22;54122;53.538;49.366;2023-10-09T05:53:16;11.20;48.20
67196;DHT22;54122;53.538;49.366;2023-10-09T05:56:05;10.20;50.40
67196;DHT22;54122;53.538;49.366;2023-10-09T05:58:49;9.30;53.50
67196;DHT22;54122;53.538;49.366;2023-10-09T06:01:34;9.70;55.80
67196;DHT22;54122;53.538;49.366;2023-10-09T06:04:18;10.80;53.40
67196;DHT22;54122;53.538;49.366;2023-10-09T06:06:45;11.70;51.00
67196;DHT22;54122;53.538;49.366;2023-10-09T06:09:13;12.00;48.80
67196;DHT22;54122;53.538;49.366;2023-10-09T06:11:43;11.80;48.80
67196;DHT22;54122;53.538;49.366;2023-10-09T06:14:16;11.40;49.70
67196;DHT22;54122;53.538;49.366;2023-10-09T06:17:12;10.80;51.00
67196;DHT22;54122;53.538;49.366;2023-10-09T06:19:50;10.30;51.80
67196;DHT22;54122;53.538;49.366;2023-10-09T06:22:24;10.00;52.70
67196;DHT22;54122;53.538;49.366;2023-10-09T06:25:23;9.80;53.20
67196;DHT22;54122;53.538;49.366;2023-10-09T06:27:58;9.70;53.90
67196;DHT22;54122;53.538;49.366;2023-10-09T06:30:25;9.80;53.90
67196;DHT22;54122;53.538;49.366;2023-10-09T06:32:52;9.80;53.90
67196;DHT22;54122;53.538;49.366;2023-10-09T06:35:46;9.80;54.10
67196;DHT22;54122;53.538;49.366;2023-10-09T06:38:21;9.60;54.20
67196;DHT22;54122;53.538;49.366;2023-10-09T06:40:49;9.40;54.90
67196;DHT22;54122;53.538;49.366;2023-10-09T06:43:28;9.10;55.80
67196;DHT22;54122;53.538;49.366;2023-10-09T06:45:56;8.90;57.00
67196;DHT22;54122;53.538;49.366;2023-10-09T06:48:45;8.70;57.80
67196;DHT22;54122;53.538;49.366;2023-10-09T06:51:13;8.60;59.00
67196;DHT22;54122;53.538;49.366;2023-10-09T06:53:42;8.40;58.70
67196;DHT22;54122;53.538;49.366;2023-10-09T06:56:27;8.30;59.50
67196;DHT22;54122;53.538;49.366;2023-10-09T06:59:01;8.20;61.10
67196;DHT22;54122;53.538;49.366;2023-10-09T07:01:41;8.10;60.50
67196;DHT22;54122;53.538;49.366;2023-10-09T07:04:13;8.10;61.30
67196;DHT22;54122;53.538;49.366;2023-10-09T07:07:06;8.20;60.90
67196;DHT22;54122;53.538;49.366;2023-10-09T07:09:39;8.40;60.10
67196;DHT22;54122;53.538;49.366;2023-10-09T07:12:09;8.70;58.50
67196;DHT22;54122;53.538;49.366;2023-10-09T07:14:52;8.80;57.90
67196;DHT22;54122;53.538;49.366;2023-10-09T07:17:22;9.00;56.90
67196;DHT22;54122;53.538;49.366;2023-10-09T07:19:50;9.20;56.50
67196;DHT22;54122;53.538;49.366;2023-10-09T07:22:17;9.40;55.80
67196;DHT22;54122;53.538;49.366;2023-10-09T07:24:52;9.30;55.30
67196;DHT22;54122;53.538;49.366;2023-10-09T07:27:40;9.40;56.20
67196;DHT22;54122;53.538;49.366;2023-10-09T07:30:16;10.20;55.00
67196;DHT22;54122;53.538;49.366;2023-10-09T07:33:03;10.20;52.50
67196;DHT22;54122;53.538;49.366;2023-10-09T07:35:32;10.00;53.40
67196;DHT22;54122;53.538;49.366;2023-10-09T07:40:55;9.80;53.90
67196;DHT22;54122;53.538;49.366;2023-10-09T07:43:43;9.80;54.20
67196;DHT22;54122;53.538;49.366;2023-10-09T07:46:15;9.80;53.70
67196;DHT22;54122;53.538;49.366;2023-10-09T07:49:05;9.50;54.10
67196;DHT22;54122;53.538;49.366;2023-10-09T07:51:47;9.20;54.60
67196;DHT22;54122;53.538;49.366;2023-10-09T07:54:14;9.00;55.50
67196;DHT22;54122;53.538;49.366;2023-10-09T07:56:42;8.70;55.00
67196;DHT22;54122;53.538;49.366;2023-10-09T07:59:12;8.40;55.90
67196;DHT22;54122;53.538;49.366;2023-10-09T08:01:44;8.20;57.20
67196;DHT22;54122;53.538;49.366;2023-10-09T08:04:25;8.10;58.00
67196;DHT22;54122;53.538;49.366;2023-10-09T08:07:10;8.10;58.50
67196;DHT22;54122;53.538;49.366;2023-10-09T08:09:52;8.00;58.90
67196;DHT22;54122;53.538;49.366;2023-10-09T08:12:40;7.90;59.20
67196;DHT22;54122;53.538;49.366;2023-10-09T08:15:17;7.80;59.60
67196;DHT22;54122;53.538;49.366;2023-10-09T08:17:52;7.80;59.70
67196;DHT22;54122;53.538;49.366;2023-10-09T08:20:44;7.70;60.00
67196;DHT22;54122;53.538;49.366;2023-10-09T08:23:28;7.80;60.30
67196;DHT22;54122;53.538;49.366;2023-10-09T08:26:15;7.90;59.60
67196;DHT22;54122;53.538;49.366;2023-10-09T08:28:57;7.90;59.20
67196;DHT22;54122;53.538;49.366;2023-10-09T08:31:42;7.90;58.80
67196;DHT22;54122;53.538;49.366;2023-10-09T08:34:12;7.90;58.80
67196;DHT22;54122;53.538;49.366;2023-10-09T08:36:52;8.00;58.70
67196;DHT22;54122;53.538;49.366;2023-10-09T08:39:20;8.10;58.70
67196;DHT22;54122;53.538;49.366;2023-10-09T08:41:54;8.10;58.50
67196;DHT22;54122;53.538;49.366;2023-10-09T08:44:25;8.10;58.70
67196;DHT22;54122;53.538;49.366;2023-10-09T08:46:55;8.10;58.50
67196;DHT22;54122;53.538;49.366;2023-10-09T08:49:25;8.10;58.40
67196;DHT22;54122;53.538;49.366;2023-10-09T08:51:51;8.20;57.80
67196;DHT22;54122;53.538;49.366;2023-10-09T08:54:20;8.30;57.10
67196;DHT22;54122;53.538;49.366;2023-10-09T08:56:47;8.30;57.10
67196;DHT22;54122;53.538;49.366;2023-10-09T08:59:20;8.30;57.20
67196;DHT22;54122;53.538;49.366;2023-10-09T09:01:50;8.30;57.40
67196;DHT22;54122;53.538;49.366;2023-10-09T09:04:36;8.20;57.50
67196;DHT22;54122;53.538;49.366;2023-10-09T09:07:26;8.20;57.00
67196;DHT22;54122;53.538;49.366;2023-10-09T09:09:56;8.20;57.10
67196;DHT22;54122;53.538;49.366;2023-10-09T09:12:24;8.10;57.40
67196;DHT22;54122;53.538;49.366;2023-10-09T09:14:50;8.00;57.90
67196;DHT22;54122;53.538;49.366;2023-10-09T09:17:23;8.00;58.30
67196;DHT22;54122;53.538;49.366;2023-10-09T09:19:53;7.90;58.30
67196;DHT22;54122;53.538;49.366;2023-10-09T09:22:20;7.90;58.40
67196;DHT22;54122;53.538;49.366;2023-10-09T09:24:59;7.80;58.40
67196;DHT22;54122;53.538;49.366;2023-10-09T09:27:45;7.90;58.20
67196;DHT22;54122;53.538;49.366;2023-10-09T09:30:35;8.10;58.20
67196;DHT22;54122;53.538;49.366;2023-10-09T09:36:00;8.30;57.10
67196;DHT22;54122;53.538;49.366;2023-10-09T09:38:32;8.50;56.90
67196;DHT22;54122;53.538;49.366;2023-10-09T09:41:09;8.50;56.70
67196;DHT22;54122;53.538;49.366;2023-10-09T09:43:42;8.50;55.40
67196;DHT22;54122;53.538;49.366;2023-10-09T09:46:13;8.60;54.50
67196;DHT22;54122;53.538;49.366;2023-10-09T09:48:42;8.60;54.70
67196;DHT22;54122;53.538;49.366;2023-10-09T09:51:14;8.70;54.80
67196;DHT22;54122;53.538;49.366;2023-10-09T09:53:43;8.70;55.00
67196;DHT22;54122;53.538;49.366;2023-10-09T09:56:22;8.70;54.90
67196;DHT22;54122;53.538;49.366;2023-10-09T09:58:51;8.60;55.20
67196;DHT22;54122;53.538;49.366;2023-10-09T10:01:35;8.50;55.30
67196;DHT22;54122;53.538;49.366;2023-10-09T10:04:09;8.50;55.60
67196;DHT22;54122;53.538;49.366;2023-10-09T10:06:39;8.50;55.80
67196;DHT22;54122;53.538;49.366;2023-10-09T10:09:09;8.50;55.50
67196;DHT22;54122;53.538;49.366;2023-10-09T10:14:13;8.30;55.80
67196;DHT22;54122;53.538;49.366;2023-10-09T10:17:07;8.20;55.90
67196;DHT22;54122;53.538;49.366;2023-10-09T10:20:04;8.20;56.20
67196;DHT22;54122;53.538;49.366;2023-10-09T10:23:17;8.20;56.50
67196;DHT22;54122;53.538;49.366;2023-10-09T10:25:52;8.20;56.70
67196;DHT22;54122;53.538;49.366;2023-10-09T10:28:27;8.20;56.50
67196;DHT22;54122;53.538;49.366;2023-10-09T10:31:10;8.20;56.50
67196;DHT22;54122;53.538;49.366;2023-10-09T10:36:25;8.10;56.30
67196;DHT22;54122;53.538;49.366;2023-10-09T10:39:08;8.20;56.50
67196;DHT22;54122;53.538;49.366;2023-10-09T10:41:55;8.20;56.30
67196;DHT22;54122;53.538;49.366;2023-10-09T10:44:30;8.20;56.60
67196;DHT22;54122;53.538;49.366;2023-10-09T10:47:08;8.20;56.80
67196;DHT22;54122;53.538;49.366;2023-10-09T10:49:52;8.10;56.90
67196;DHT22;54122;53.538;49.366;2023-10-09T10:52:43;8.10;56.20
67196;DHT22;54122;53.538;49.366;2023-10-09T10:55:14;8.00;55.60
67196;DHT22;54122;53.538;49.366;2023-10-09T10:58:20;8.00;55.60
67196;DHT22;54122;53.538;49.366;2023-10-09T11:01:02;8.00;55.60
67196;DHT22;54122;53.538;49.366;2023-10-09T11:03:38;8.00;56.10
67196;DHT22;54122;53.538;49.366;2023-10-09T11:06:34;8.00;56.20
67196;DHT22;54122;53.538;49.366;2023-10-09T11:09:09;8.00;56.10
67196;DHT22;54122;53.538;49.366;2023-10-09T11:12:04;8.10;56.20
67196;DHT22;54122;53.538;49.366;2023-10-09T11:14:48;8.20;55.70
67196;DHT22;54122;53.538;49.366;2023-10-09T11:17:38;8.20;55.70
67196;DHT22;54122;53.538;49.366;2023-10-09T11:20:07;8.20;55.90
67196;DHT22;54122;53.538;49.366;2023-10-09T11:22:51;8.20;55.70
67196;DHT22;54122;53.538;49.366;2023-10-09T11:25:47;8.20;55.80
67196;DHT22;54122;53.538;49.366;2023-10-09T11:28:21;8.20;55.80
67196;DHT22;54122;53.538;49.366;2023-10-09T11:31:11;8.20;55.80
67196;DHT22;54122;53.538;49.366;2023-10-09T11:36:11;8.30;56.30
67196;DHT22;54122;53.538;49.366;2023-10-09T11:38:44;8.30;56.20
67196;DHT22;54122;53.538;49.366;2023-10-09T11:41:20;8.30;56.00
67196;DHT22;54122;53.538;49.366;2023-10-09T11:43:54;8.30;56.00
67196;DHT22;54122;53.538;49.366;2023-10-09T11:46:24;8.30;55.80
67196;DHT22;54122;53.538;49.366;2023-10-09T11:49:09;8.30;55.80
67196;DHT22;54122;53.538;49.366;2023-10-09T11:52:08;8.30;56.00
67196;DHT22;54122;53.538;49.366;2023-10-09T11:54:36;8.30;56.00
67196;DHT22;54122;53.538;49.366;2023-10-09T11:57:03;8.30;56.30
67196;DHT22;54122;53.538;49.366;2023-10-09T11:59:34;8.30;56.60
67196;DHT22;54122;53.538;49.366;2023-10-09T12:02:10;8.20;56.60
67196;DHT22;54122;53.538;49.366;2023-10-09T12:04:46;8.20;56.60
67196;DHT22;54122;53.538;49.366;2023-10-09T12:07:13;8.20;56.50
67196;DHT22;54122;53.538;49.366;2023-10-09T12:09:39;8.10;56.60
67196;DHT22;54122;53.538;49.366;2023-10-09T12:12:09;8.10;57.00
67196;DHT22;54122;53.538;49.366;2023-10-09T12:14:35;8.10;57.50
67196;DHT22;54122;53.538;49.366;2023-10-09T12:17:14;8.00;56.90
67196;DHT22;54122;53.538;49.366;2023-10-09T12:19:43;8.00;56.80
67196;DHT22;54122;53.538;49.366;2023-10-09T12:22:10;8.00;56.70
67196;DHT22;54122;53.538;49.366;2023-10-09T12:24:42;7.90;56.70
67196;DHT22;54122;53.538;49.366;2023-10-09T12:27:11;7.90;56.60
67196;DHT22;54122;53.538;49.366;2023-10-09T12:29:38;7.90;56.50
67196;DHT22;54122;53.538;49.366;2023-10-09T12:32:10;7.90;56.70
67196;DHT22;54122;53.538;49.366;2023-10-09T12:34:38;7.90;57.20
67196;DHT22;54122;53.538;49.366;2023-10-09T12:37:11;7.90;57.30
67196;DHT22;54122;53.538;49.366;2023-10-09T12:39:38;7.90;57.80
67196;DHT22;54122;53.538;49.366;2023-10-09T12:42:09;7.90;58.20
67196;DHT22;54122;53.538;49.366;2023-10-09T12:44:38;8.00;58.30
67196;DHT22;54122;53.538;49.366;2023-10-09T12:47:08;8.00;58.50
67196;DHT22;54122;53.538;49.366;2023-10-09T12:49:37;8.00;59.00
67196;DHT22;54122;53.538;49.366;2023-10-09T12:52:08;7.90;59.40
67196;DHT22;54122;53.538;49.366;2023-10-09T12:54:55;7.90;59.80
67196;DHT22;54122;53.538;49.366;2023-10-09T12:57:23;7.90;60.10
67196;DHT22;54122;53.538;49.366;2023-10-09T12:59:54;7.80;60.50
67196;DHT22;54122;53.538;49.366;2023-10-09T13:02:21;7.80;60.70
67196;DHT22;54122;53.538;49.366;2023-10-09T13:04:57;7.80;60.90
67196;DHT22;54122;53.538;49.366;2023-10-09T13:07:26;7.70;60.90
67196;DHT22;54122;53.538;49.366;2023-10-09T13:09:52;7.70;61.10
67196;DHT22;54122;53.538;49.366;2023-10-09T13:12:39;7.60;61.30
67196;DHT22;54122;53.538;49.366;2023-10-09T13:15:09;7.60;61.60
67196;DHT22;54122;53.538;49.366;2023-10-09T13:17:37;7.60;61.90
67196;DHT22;54122;53.538;49.366;2023-10-09T13:20:04;7.60;62.10
67196;DHT22;54122;53.538;49.366;2023-10-09T13:22:42;7.50;62.50
67196;DHT22;54122;53.538;49.366;2023-10-09T13:25:10;7.50;62.80
67196;DHT22;54122;53.538;49.366;2023-10-09T13:27:43;7.50;63.10
67196;DHT22;54122;53.538;49.366;2023-10-09T13:30:20;7.50;63.20
67196;DHT22;54122;53.538;49.366;2023-10-09T13:32:50;7.40;63.20
67196;DHT22;54122;53.538;49.366;2023-10-09T13:35:20;7.50;63.60
67196;DHT22;54122;53.538;49.366;2023-10-09T13:37:53;7.50;63.70
67196;DHT22;54122;53.538;49.366;2023-10-09T13:40:23;7.40;63.80
67196;DHT22;54122;53.538;49.366;2023-10-09T13:42:54;7.40;63.50
67196;DHT22;54122;53.538;49.366;2023-10-09T13:45:26;7.40;63.30
67196;DHT22;54122;53.538;49.366;2023-10-09T13:47:59;7.40;63.20
67196;DHT22;54122;53.538;49.366;2023-10-09T13:50:29;7.40;63.30
67196;DHT22;54122;53.538;49.366;2023-10-09T13:53:01;7.50;63.00
67196;DHT22;54122;53.538;49.366;2023-10-09T13:55:37;7.40;62.80
67196;DHT22;54122;53.538;49.366;2023-10-09T13:58:10;7.40;63.00
67196;DHT22;54122;53.538;49.366;2023-10-09T14:00:42;7.30;63.00
67196;DHT22;54122;53.538;49.366;2023-10-09T14:03:08;7.40;63.40
67196;DHT22;54122;53.538;49.366;2023-10-09T14:05:39;7.40;63.50
67196;DHT22;54122;53.538;49.366;2023-10-09T14:08:26;7.40;63.90
67196;DHT22;54122;53.538;49.366;2023-10-09T14:10:55;7.40;63.90
67196;DHT22;54122;53.538;49.366;2023-10-09T14:13:22;7.40;64.00
67196;DHT22;54122;53.538;49.366;2023-10-09T14:15:56;7.40;64.10
67196;DHT22;54122;53.538;49.366;2023-10-09T14:18:24;7.40;64.30
67196;DHT22;54122;53.538;49.366;2023-10-09T14:20:51;7.40;64.70
67196;DHT22;54122;53.538;49.366;2023-10-09T14:23:22;7.40;64.80
67196;DHT22;54122;53.538;49.366;2023-10-09T14:25:50;7.40;65.00
67196;DHT22;54122;53.538;49.366;2023-10-09T14:28:20;7.40;65.00
67196;DHT22;54122;53.538;49.366;2023-10-09T14:30:50;7.30;64.80
67196;DHT22;54122;53.538;49.366;2023-10-09T14:33:31;7.30;64.60
67196;DHT22;54122;53.538;49.366;2023-10-09T14:36:02;7.30;64.70
67196;DHT22;54122;53.538;49.366;2023-10-09T14:38:31;7.30;64.50
67196;DHT22;54122;53.538;49.366;2023-10-09T14:40:59;7.30;64.40
67196;DHT22;54122;53.538;49.366;2023-10-09T14:43:26;7.30;64.50
67196;DHT22;54122;53.538;49.366;2023-10-09T14:45:59;7.30;64.50
67196;DHT22;54122;53.538;49.366;2023-10-09T14:48:26;7.30;64.60
67196;DHT22;54122;53.538;49.366;2023-10-09T14:50:55;7.30;64.50
67196;DHT22;54122;53.538;49.366;2023-10-09T14:53:33;7.40;64.60
67196;DHT22;54122;53.538;49.366;2023-10-09T14:56:00;7.40;64.70
67196;DHT22;54122;53.538;49.366;2023-10-09T14:58:38;7.40;64.80
67196;DHT22;54122;53.538;49.366;2023-10-09T15:01:14;7.40;64.90
67196;DHT22;54122;53.538;49.366;2023-10-09T15:03:45;7.50;64.80
67196;DHT22;54122;53.538;49.366;2023-10-09T15:06:14;7.50;64.60
67196;DHT22;54122;53.538;49.366;2023-10-09T15:08:41;7.40;64.50
67196;DHT22;54122;53.538;49.366;2023-10-09T15:11:11;7.40;64.50
67196;DHT22;54122;53.538;49.366;2023-10-09T15:13:37;7.50;64.70
67196;DHT22;54122;53.538;49.366;2023-10-09T15:16:05;7.50;64.80
67196;DHT22;54122;53.538;49.366;2023-10-09T15:18:34;7.50;65.00
67196;DHT22;54122;53.538;49.366;2023-10-09T15:21:03;7.40;65.10
67196;DHT22;54122;53.538;49.366;2023-10-09T15:23:33;7.40;65.40
67196;DHT22;54122;53.538;49.366;2023-10-09T15:26:00;7.50;65.50
67196;DHT22;54122;53.538;49.366;2023-10-09T15:28:32;7.50;65.70
67196;DHT22;54122;53.538;49.366;2023-10-09T15:30:59;7.40;65.70
67196;DHT22;54122;53.538;49.366;2023-10-09T15:33:29;7.40;65.90
67196;DHT22;54122;53.538;49.366;2023-10-09T15:35:57;7.40;66.20
67196;DHT22;54122;53.538;49.366;2023-10-09T15:38:25;7.40;66.30
67196;DHT22;54122;53.538;49.366;2023-10-09T15:40:54;7.40;66.70
67196;DHT22;54122;53.538;49.366;2023-10-09T15:43:25;7.40;67.00
67196;DHT22;54122;53.538;49.366;2023-10-09T15:45:54;7.40;67.40
67196;DHT22;54122;53.538;49.366;2023-10-09T15:48:32;7.30;67.70
67196;DHT22;54122;53.538;49.366;2023-10-09T15:50:59;7.30;68.20
67196;DHT22;54122;53.538;49.366;2023-10-09T15:53:26;7.20;68.40
67196;DHT22;54122;53.538;49.366;2023-10-09T15:55:53;7.20;68.70
67196;DHT22;54122;53.538;49.366;2023-10-09T15:58:23;7.20;69.00
67196;DHT22;54122;53.538;49.366;2023-10-09T16:00:50;7.10;69.30
67196;DHT22;54122;53.538;49.366;2023-10-09T16:03:26;7.10;69.80
67196;DHT22;54122;53.538;49.366;2023-10-09T16:05:57;7.00;69.90
67196;DHT22;54122;53.538;49.366;2023-10-09T16:08:28;7.00;70.30
67196;DHT22;54122;53.538;49.366;2023-10-09T16:11:01;7.00;70.50
67196;DHT22;54122;53.538;49.366;2023-10-09T16:13:30;6.90;71.00
67196;DHT22;54122;53.538;49.366;2023-10-09T16:15:59;6.90;71.10
67196;DHT22;54122;53.538;49.366;2023-10-09T16:18:30;6.90;71.10
67196;DHT22;54122;53.538;49.366;2023-10-09T16:20:59;6.90;71.40
67196;DHT22;54122;53.538;49.366;2023-10-09T16:23:27;6.80;71.70
67196;DHT22;54122;53.538;49.366;2023-10-09T16:25:54;6.80;72.20
67196;DHT22;54122;53.538;49.366;2023-10-09T16:28:23;6.80;72.40
67196;DHT22;54122;53.538;49.366;2023-10-09T16:30:55;6.80;72.70
67196;DHT22;54122;53.538;49.366;2023-10-09T16:33:24;6.80;72.80
67196;DHT22;54122;53.538;49.366;2023-10-09T16:35:55;6.70;72.90